Time,TemperatureF,DewpointF,PressureIn,WindDirection,WindDirectionDegrees,WindSpeedMPH,WindSpeedGustMPH,Humidity,HourlyPrecipIn,Conditions,Clouds,dailyrainin,SoftwareType,DateUTC
2013-10-25 00:04:00,59.4,27.0,30.02,WSW,248,0.0,0.0,29,0.00,,,0.00,WUHU216HW,2013-10-25 07:04:00,
2013-10-25 00:14:00,59.0,26.7,30.02,WSW,248,0.0,0.9,29,0.00,,,0.00,WUHU216HW,2013-10-25 07:14:00,
2013-10-25 00:24:00,59.0,26.7,30.02,WSW,248,0.0,0.9,29,0.00,,,0.00,WUHU216HW,2013-10-25 07:24:00,
2013-10-25 00:34:00,58.9,26.6,30.02,WSW,248,0.2,0.4,29,0.00,,,0.00,WUHU216HW,2013-10-25 07:34:00,
2013-10-25 00:44:00,58.7,26.5,30.02,WSW,248,0.0,0.7,29,0.00,,,0.00,WUHU216HW,2013-10-25 07:44:00,
2013-10-25 00:54:00,58.3,27.1,30.03,WSW,248,0.4,0.4,30,0.00,,,0.00,WUHU216HW,2013-10-25 07:54:00,
2013-10-25 01:04:00,58.1,26.9,30.03,WSW,248,0.0,0.4,30,0.00,,,0.00,WUHU216HW,2013-10-25 08:04:00,
2013-10-25 01:14:00,57.8,26.6,30.03,WSW,248,0.0,0.2,30,0.00,,,0.00,WUHU216HW,2013-10-25 08:14:00,
2013-10-25 01:24:00,57.6,27.1,30.03,WSW,248,0.0,0.2,31,0.00,,,0.00,WUHU216HW,2013-10-25 08:24:00,
2013-10-25 01:34:00,57.2,27.6,30.03,WSW,248,0.0,0.0,32,0.00,,,0.00,WUHU216HW,2013-10-25 08:34:00,
2013-10-25 01:44:00,56.9,28.6,30.04,WSW,248,0.0,0.4,34,0.00,,,0.00,WUHU216HW,2013-10-25 08:44:00,
2013-10-25 01:54:00,56.5,29.0,30.03,WSW,248,0.0,0.0,35,0.00,,,0.00,WUHU216HW,2013-10-25 08:54:00,
2013-10-25 02:04:00,56.2,29.3,30.03,WSW,248,0.0,0.2,36,0.00,,,0.00,WUHU216HW,2013-10-25 09:04:00,
2013-10-25 02:14:00,55.6,28.9,30.03,WSW,248,0.2,0.4,36,0.00,,,0.00,WUHU216HW,2013-10-25 09:14:00,
2013-10-25 02:24:00,55.4,29.4,30.03,WSW,248,0.2,0.4,37,0.00,,,0.00,WUHU216HW,2013-10-25 09:24:00,
2013-10-25 02:34:00,55.1,29.1,30.03,WSW,248,0.2,0.7,37,0.00,,,0.00,WUHU216HW,2013-10-25 09:34:00,
2013-10-25 02:45:00,54.9,28.9,30.03,WSW,248,0.0,0.4,37,0.00,,,0.00,WUHU216HW,2013-10-25 09:45:00,
2013-10-25 02:55:00,54.7,28.8,30.03,WSW,248,0.4,0.4,37,0.00,,,0.00,WUHU216HW,2013-10-25 09:55:00,
2013-10-25 03:05:00,54.5,27.9,30.03,WSW,248,0.4,0.7,36,0.00,,,0.00,WUHU216HW,2013-10-25 10:05:00,
2013-10-25 03:15:00,54.4,28.4,30.03,WSW,248,0.0,0.7,37,0.00,,,0.00,WUHU216HW,2013-10-25 10:15:00,
2013-10-25 03:25:00,54.4,27.7,30.03,WSW,248,0.7,0.7,36,0.00,,,0.00,WUHU216HW,2013-10-25 10:25:00,
2013-10-25 03:35:00,54.2,27.6,30.03,WSW,248,0.0,0.4,36,0.00,,,0.00,WUHU216HW,2013-10-25 10:35:00,
2013-10-25 03:45:00,54.0,28.2,30.03,WSW,248,0.0,0.0,37,0.00,,,0.00,WUHU216HW,2013-10-25 10:45:00,
2013-10-25 03:55:00,53.6,27.8,30.03,WSW,248,0.0,0.4,37,0.00,,,0.00,WUHU216HW,2013-10-25 10:55:00,
2013-10-25 04:05:00,53.3,28.2,30.03,WSW,248,0.0,0.0,38,0.00,,,0.00,WUHU216HW,2013-10-25 11:05:00,
2013-10-25 04:15:00,52.9,28.5,30.03,WSW,248,0.0,0.0,39,0.00,,,0.00,WUHU216HW,2013-10-25 11:15:00,
2013-10-25 04:25:00,52.6,28.9,30.03,WSW,248,0.0,0.4,40,0.00,,,0.00,WUHU216HW,2013-10-25 11:25:00,
2013-10-25 04:35:00,52.4,28.7,30.03,WSW,248,0.0,0.0,40,0.00,,,0.00,WUHU216HW,2013-10-25 11:35:00,
2013-10-25 04:45:00,52.2,29.2,30.03,WSW,248,0.0,0.0,41,0.00,,,0.00,WUHU216HW,2013-10-25 11:45:00,
2013-10-25 04:55:00,51.8,28.8,30.03,WSW,248,0.0,0.0,41,0.00,,,0.00,WUHU216HW,2013-10-25 11:55:00,
2013-10-25 05:05:00,51.5,29.1,30.03,WSW,248,0.0,0.0,42,0.00,,,0.00,WUHU216HW,2013-10-25 12:05:00,
2013-10-25 05:15:00,51.3,29.4,30.04,WSW,248,0.0,0.2,43,0.00,,,0.00,WUHU216HW,2013-10-25 12:15:00,
2013-10-25 05:25:00,51.1,29.3,30.04,WSW,248,0.4,0.4,43,0.00,,,0.00,WUHU216HW,2013-10-25 12:25:00,
2013-10-25 05:35:00,50.9,28.5,30.04,WSW,248,0.0,0.7,42,0.00,,,0.00,WUHU216HW,2013-10-25 12:35:00,
2013-10-25 05:46:00,50.8,29.0,30.04,WSW,248,0.0,0.7,43,0.00,,,0.00,WUHU216HW,2013-10-25 12:46:00,
2013-10-25 05:56:00,50.8,29.0,30.04,WSW,248,0.0,0.2,43,0.00,,,0.00,WUHU216HW,2013-10-25 12:56:00,
2013-10-25 06:06:00,50.6,28.8,30.05,WSW,248,0.0,0.0,43,0.00,,,0.00,WUHU216HW,2013-10-25 13:06:00,
2013-10-25 06:16:00,50.0,28.4,30.05,WSW,248,0.0,0.2,43,0.00,,,0.00,WUHU216HW,2013-10-25 13:16:00,
2013-10-25 06:26:00,50.0,28.9,30.05,WSW,248,0.4,0.7,44,0.00,,,0.00,WUHU216HW,2013-10-25 13:26:00,
2013-10-25 06:36:00,50.0,28.9,30.05,WSW,248,0.4,0.4,44,0.00,,,0.00,WUHU216HW,2013-10-25 13:36:00,
2013-10-25 06:46:00,49.9,28.2,30.06,WSW,248,0.2,1.1,43,0.00,,,0.00,WUHU216HW,2013-10-25 13:46:00,
2013-10-25 06:56:00,50.2,28.4,30.06,WSW,248,0.0,0.7,43,0.00,,,0.00,WUHU216HW,2013-10-25 13:56:00,
2013-10-25 07:06:00,50.4,28.6,30.06,WSW,248,0.4,0.4,43,0.00,,,0.00,WUHU216HW,2013-10-25 14:06:00,
2013-10-25 07:16:00,50.8,28.5,30.06,WSW,248,0.0,0.4,42,0.00,,,0.00,WUHU216HW,2013-10-25 14:16:00,
2013-10-25 07:26:00,51.5,29.1,30.06,WSW,248,0.0,0.4,42,0.00,,,0.00,WUHU216HW,2013-10-25 14:26:00,
2013-10-25 07:36:00,52.0,29.5,30.06,WSW,248,0.0,0.0,42,0.00,,,0.00,WUHU216HW,2013-10-25 14:36:00,
2013-10-25 07:46:00,52.9,30.9,30.07,WSW,248,0.0,0.4,43,0.00,,,0.00,WUHU216HW,2013-10-25 14:46:00,
2013-10-25 07:56:00,53.6,31.6,30.07,WSW,248,0.7,0.7,43,0.00,,,0.00,WUHU216HW,2013-10-25 14:56:00,
2013-10-25 08:06:00,54.4,32.2,30.07,WSW,248,0.0,0.7,43,0.00,,,0.00,WUHU216HW,2013-10-25 15:06:00,
2013-10-25 08:16:00,55.1,32.9,30.08,WSW,248,0.0,0.0,43,0.00,,,0.00,WUHU216HW,2013-10-25 15:16:00,
2013-10-25 08:26:00,56.5,33.6,30.08,WSW,248,0.4,0.4,42,0.00,,,0.00,WUHU216HW,2013-10-25 15:26:00,
2013-10-25 08:36:00,58.7,35.0,30.08,WSW,248,0.4,1.1,41,0.00,,,0.00,WUHU216HW,2013-10-25 15:36:00,
2013-10-25 08:46:00,60.1,35.7,30.09,WSW,248,0.2,1.3,40,0.00,,,0.00,WUHU216HW,2013-10-25 15:46:00,
2013-10-25 08:57:00,61.4,36.1,30.09,WSW,248,0.4,2.2,39,0.00,,,0.00,WUHU216HW,2013-10-25 15:57:00,
2013-10-25 09:07:00,62.3,36.2,30.09,WSW,248,1.1,1.6,38,0.00,,,0.00,WUHU216HW,2013-10-25 16:07:00,
2013-10-25 09:17:00,63.4,36.5,30.09,WSW,248,0.7,1.8,37,0.00,,,0.00,WUHU216HW,2013-10-25 16:17:00,
2013-10-25 09:27:00,64.8,37.1,30.09,WSW,248,1.1,1.8,36,0.00,,,0.00,WUHU216HW,2013-10-25 16:27:00,
2013-10-25 09:37:00,66.2,36.2,30.08,WSW,248,2.7,2.7,33,0.00,,,0.00,WUHU216HW,2013-10-25 16:37:00,
2013-10-25 09:47:00,67.1,36.2,30.08,WSW,248,1.1,2.7,32,0.00,,,0.00,WUHU216HW,2013-10-25 16:47:00,
2013-10-25 09:57:00,68.0,35.5,30.08,WSW,248,1.1,2.2,30,0.00,,,0.00,WUHU216HW,2013-10-25 16:57:00,
2013-10-25 10:07:00,69.3,35.6,30.08,WSW,248,0.0,1.8,29,0.00,,,0.00,WUHU216HW,2013-10-25 17:07:00,
2013-10-25 10:17:00,70.4,35.6,30.08,WSW,248,0.9,1.1,28,0.00,,,0.00,WUHU216HW,2013-10-25 17:17:00,
2013-10-25 10:27:00,71.1,34.1,30.08,WSW,248,1.3,1.3,26,0.00,,,0.00,WUHU216HW,2013-10-25 17:27:00,
2013-10-25 10:37:00,72.4,34.2,30.08,WSW,248,1.6,1.6,25,0.00,,,0.00,WUHU216HW,2013-10-25 17:37:00,
2013-10-25 10:47:00,73.3,34.9,30.08,WSW,248,1.8,2.9,25,0.00,,,0.00,WUHU216HW,2013-10-25 17:47:00,
2013-10-25 10:57:00,74.3,34.8,30.07,WSW,248,2.9,3.8,24,0.00,,,0.00,WUHU216HW,2013-10-25 17:57:00,
2013-10-25 11:07:00,75.2,34.6,30.07,WSW,248,2.5,3.4,23,0.00,,,0.00,WUHU216HW,2013-10-25 18:07:00,
2013-10-25 11:17:00,76.1,34.3,30.07,WSW,248,3.6,3.6,22,0.00,,,0.00,WUHU216HW,2013-10-25 18:17:00,
2013-10-25 11:27:00,76.9,34.9,30.07,WSW,248,0.4,4.0,22,0.00,,,0.00,WUHU216HW,2013-10-25 18:27:00,
2013-10-25 11:37:00,77.8,34.6,30.06,WSW,248,2.7,4.7,21,0.00,,,0.00,WUHU216HW,2013-10-25 18:37:00,
2013-10-25 11:47:00,78.1,34.8,30.06,WSW,248,1.3,4.0,21,0.00,,,0.00,WUHU216HW,2013-10-25 18:47:00,
2013-10-25 11:58:00,78.8,35.5,30.05,WSW,248,0.4,3.4,21,0.00,,,0.00,WUHU216HW,2013-10-25 18:58:00,
2013-10-25 12:08:00,79.4,33.2,30.05,WSW,248,1.1,3.8,19,0.00,,,0.00,WUHU216HW,2013-10-25 19:08:00,
2013-10-25 12:18:00,80.3,34.0,30.04,WSW,248,0.4,2.2,19,0.00,,,0.00,WUHU216HW,2013-10-25 19:18:00,
2013-10-25 12:28:00,81.0,33.0,30.03,WSW,248,0.4,3.1,18,0.00,,,0.00,WUHU216HW,2013-10-25 19:28:00,
2013-10-25 12:38:00,81.5,33.3,30.03,SW,225,3.1,3.8,18,0.00,,,0.00,WUHU216HW,2013-10-25 19:38:00,
2013-10-25 12:48:00,81.7,33.5,30.03,SW,225,3.1,3.4,18,0.00,,,0.00,WUHU216HW,2013-10-25 19:48:00,
2013-10-25 12:58:00,81.9,33.7,30.02,WNW,293,4.0,4.5,18,0.00,,,0.00,WUHU216HW,2013-10-25 19:58:00,
2013-10-25 13:08:00,82.3,32.2,30.02,WSW,248,1.3,5.8,17,0.00,,,0.00,WUHU216HW,2013-10-25 20:08:00,
2013-10-25 13:18:00,82.4,32.4,30.02,WSW,248,0.4,2.9,17,0.00,,,0.00,WUHU216HW,2013-10-25 20:18:00,
2013-10-25 13:28:00,82.8,32.7,30.01,West,270,3.6,5.8,17,0.00,,,0.00,WUHU216HW,2013-10-25 20:28:00,
2013-10-25 13:38:00,83.0,31.1,30.01,WSW,248,0.7,5.4,16,0.00,,,0.00,WUHU216HW,2013-10-25 20:38:00,
2013-10-25 13:48:00,83.0,31.1,30.01,WSW,248,3.4,5.8,16,0.00,,,0.00,WUHU216HW,2013-10-25 20:48:00,
2013-10-25 13:58:00,83.3,31.3,30.01,West,270,4.3,6.0,16,0.00,,,0.00,WUHU216HW,2013-10-25 20:58:00,
2013-10-25 14:08:00,83.5,31.5,30.01,West,270,5.1,5.1,16,0.00,,,0.00,WUHU216HW,2013-10-25 21:08:00,
2013-10-25 14:18:00,83.5,31.5,30.00,West,270,5.6,5.6,16,0.00,,,0.00,WUHU216HW,2013-10-25 21:18:00,
2013-10-25 14:28:00,83.5,29.8,30.00,WNW,293,3.8,4.3,15,0.00,,,0.00,WUHU216HW,2013-10-25 21:28:00,
2013-10-25 14:38:00,83.5,31.5,30.00,West,270,3.4,5.8,16,0.00,,,0.00,WUHU216HW,2013-10-25 21:38:00,
2013-10-25 14:48:00,83.5,31.5,30.01,NNW,338,1.8,6.3,16,0.00,,,0.00,WUHU216HW,2013-10-25 21:48:00,
2013-10-25 14:58:00,83.7,30.0,30.00,West,270,9.2,9.2,15,0.00,,,0.00,WUHU216HW,2013-10-25 21:58:00,
2013-10-25 15:08:00,83.7,30.0,30.00,SW,225,1.8,3.8,15,0.00,,,0.00,WUHU216HW,2013-10-25 22:08:00,
2013-10-25 15:18:00,83.5,29.8,30.00,SW,225,4.0,7.6,15,0.00,,,0.00,WUHU216HW,2013-10-25 22:18:00,
2013-10-25 15:28:00,83.5,29.8,30.00,SW,225,1.8,6.3,15,0.00,,,0.00,WUHU216HW,2013-10-25 22:28:00,
2013-10-25 15:39:00,83.3,31.3,30.00,West,270,4.0,5.1,16,0.00,,,0.00,WUHU216HW,2013-10-25 22:39:00,
2013-10-25 15:49:00,83.3,31.3,30.00,West,270,3.4,5.4,16,0.00,,,0.00,WUHU216HW,2013-10-25 22:49:00,
2013-10-25 15:59:00,83.2,31.2,30.00,WNW,293,2.2,4.5,16,0.00,,,0.00,WUHU216HW,2013-10-25 22:59:00,
2013-10-25 16:09:00,82.8,31.0,30.00,West,270,3.1,4.5,16,0.00,,,0.00,WUHU216HW,2013-10-25 23:09:00,
2013-10-25 16:19:00,82.4,29.0,30.00,WSW,248,5.1,6.9,15,0.00,,,0.00,WUHU216HW,2013-10-25 23:19:00,
2013-10-25 16:29:00,82.1,28.7,30.00,WSW,248,4.7,5.6,15,0.00,,,0.00,WUHU216HW,2013-10-25 23:29:00,
2013-10-25 16:39:00,81.7,30.1,30.00,WSW,248,2.7,5.4,16,0.00,,,0.00,WUHU216HW,2013-10-25 23:39:00,
2013-10-25 16:49:00,81.2,31.3,30.00,WSW,248,1.8,6.7,17,0.00,,,0.00,WUHU216HW,2013-10-25 23:49:00,
2013-10-25 16:59:00,80.8,31.1,30.00,WSW,248,4.0,5.1,17,0.00,,,0.00,WUHU216HW,2013-10-25 23:59:00,
2013-10-25 17:09:00,80.1,32.1,30.00,West,270,4.3,4.3,18,0.00,,,0.00,WUHU216HW,2013-10-26 00:09:00,
2013-10-25 17:19:00,79.6,31.7,30.01,SW,225,2.0,4.0,18,0.00,,,0.00,WUHU216HW,2013-10-26 00:19:00,
2013-10-25 17:29:00,78.8,31.1,30.01,SW,225,2.7,5.8,18,0.00,,,0.00,WUHU216HW,2013-10-26 00:29:00,
2013-10-25 17:39:00,78.3,30.6,30.01,SW,225,4.7,4.7,18,0.00,,,0.00,WUHU216HW,2013-10-26 00:39:00,
2013-10-25 17:49:00,77.6,31.7,30.01,SW,225,2.9,4.0,19,0.00,,,0.00,WUHU216HW,2013-10-26 00:49:00,
2013-10-25 17:59:00,77.0,31.3,30.02,SW,225,2.0,4.7,19,0.00,,,0.00,WUHU216HW,2013-10-26 00:59:00,
2013-10-25 18:09:00,76.3,32.4,30.02,West,270,2.9,4.3,20,0.00,,,0.00,WUHU216HW,2013-10-26 01:09:00,
2013-10-25 18:19:00,76.0,33.1,30.02,WNW,293,2.9,3.6,21,0.00,,,0.00,WUHU216HW,2013-10-26 01:19:00,
2013-10-25 18:29:00,75.4,32.7,30.02,West,270,2.0,4.7,21,0.00,,,0.00,WUHU216HW,2013-10-26 01:29:00,
2013-10-25 18:39:00,75.1,32.4,30.03,West,270,1.3,4.0,21,0.00,,,0.00,WUHU216HW,2013-10-26 01:39:00,
2013-10-25 18:49:00,74.5,32.0,30.03,West,270,1.3,2.5,21,0.00,,,0.00,WUHU216HW,2013-10-26 01:49:00,
2013-10-25 19:00:00,73.8,32.4,30.03,West,270,0.4,2.2,22,0.00,,,0.00,WUHU216HW,2013-10-26 02:00:00,
2013-10-25 19:10:00,73.1,31.8,30.03,West,270,0.0,0.2,22,0.00,,,0.00,WUHU216HW,2013-10-26 02:10:00,
2013-10-25 19:20:00,72.4,31.2,30.03,West,270,0.0,0.7,22,0.00,,,0.00,WUHU216HW,2013-10-26 02:20:00,
2013-10-25 19:30:00,71.3,31.2,30.04,West,270,0.4,0.4,23,0.00,,,0.00,WUHU216HW,2013-10-26 02:30:00,
2013-10-25 19:40:00,70.0,30.2,30.04,West,270,1.6,1.6,23,0.00,,,0.00,WUHU216HW,2013-10-26 02:40:00,
2013-10-25 19:50:00,69.1,30.4,30.04,West,270,0.4,1.3,24,0.00,,,0.00,WUHU216HW,2013-10-26 02:50:00,
2013-10-25 20:00:00,68.0,30.5,30.04,West,270,1.3,1.6,25,0.00,,,0.00,WUHU216HW,2013-10-26 03:00:00,
2013-10-25 20:10:00,67.5,30.1,30.05,West,270,0.2,1.1,25,0.00,,,0.00,WUHU216HW,2013-10-26 03:10:00,
2013-10-25 20:20:00,67.0,29.6,30.05,West,270,1.1,1.1,25,0.00,,,0.00,WUHU216HW,2013-10-26 03:20:00,
2013-10-25 20:30:00,66.2,30.0,30.05,West,270,0.4,1.8,26,0.00,,,0.00,WUHU216HW,2013-10-26 03:30:00,
2013-10-25 20:40:00,65.7,29.5,30.05,West,270,0.7,1.1,26,0.00,,,0.00,WUHU216HW,2013-10-26 03:40:00,
2013-10-25 20:50:00,65.2,29.1,30.05,West,270,0.0,0.9,26,0.00,,,0.00,WUHU216HW,2013-10-26 03:50:00,
2013-10-25 21:00:00,64.4,30.4,30.06,West,270,1.3,1.6,28,0.00,,,0.00,WUHU216HW,2013-10-26 04:00:00,
2013-10-25 21:10:00,63.9,29.0,30.06,West,270,0.4,1.1,27,0.00,,,0.00,WUHU216HW,2013-10-26 04:10:00,
2013-10-25 21:20:00,63.4,29.4,30.06,West,270,0.4,0.9,28,0.00,,,0.00,WUHU216HW,2013-10-26 04:20:00,
2013-10-25 21:30:00,62.8,29.0,30.06,West,270,0.7,1.3,28,0.00,,,0.00,WUHU216HW,2013-10-26 04:30:00,
2013-10-25 21:40:00,62.3,28.5,30.07,West,270,0.0,0.2,28,0.00,,,0.00,WUHU216HW,2013-10-26 04:40:00,
2013-10-25 21:51:00,61.6,28.9,30.07,West,270,0.4,0.4,29,0.00,,,0.00,WUHU216HW,2013-10-26 04:51:00,
2013-10-25 22:01:00,61.0,28.4,30.07,West,270,0.4,0.4,29,0.00,,,0.00,WUHU216HW,2013-10-26 05:01:00,
2013-10-25 22:11:00,60.7,29.0,30.07,West,270,0.4,0.9,30,0.00,,,0.00,WUHU216HW,2013-10-26 05:11:00,
2013-10-25 22:21:00,60.5,28.9,30.07,West,270,0.2,1.1,30,0.00,,,0.00,WUHU216HW,2013-10-26 05:21:00,
2013-10-25 22:31:00,60.1,28.6,30.07,West,270,0.0,1.1,30,0.00,,,0.00,WUHU216HW,2013-10-26 05:31:00,
2013-10-25 22:41:00,59.6,28.9,30.07,West,270,0.0,0.0,31,0.00,,,0.00,WUHU216HW,2013-10-26 05:41:00,
2013-10-25 22:51:00,59.2,28.5,30.07,West,270,0.0,0.4,31,0.00,,,0.00,WUHU216HW,2013-10-26 05:51:00,
2013-10-25 23:01:00,58.7,28.1,30.07,West,270,0.0,0.4,31,0.00,,,0.00,WUHU216HW,2013-10-26 06:01:00,
2013-10-25 23:11:00,58.3,28.4,30.07,West,270,0.0,0.0,32,0.00,,,0.00,WUHU216HW,2013-10-26 06:11:00,
2013-10-25 23:21:00,57.8,28.0,30.07,West,270,0.0,0.0,32,0.00,,,0.00,WUHU216HW,2013-10-26 06:21:00,
2013-10-25 23:31:00,57.2,27.6,30.07,West,270,0.2,0.2,32,0.00,,,0.00,WUHU216HW,2013-10-26 06:31:00,
2013-10-25 23:41:00,56.7,27.7,30.07,West,270,0.0,0.4,33,0.00,,,0.00,WUHU216HW,2013-10-26 06:41:00,
2013-10-25 23:51:00,56.2,27.9,30.07,West,270,0.0,0.4,34,0.00,,,0.00,WUHU216HW,2013-10-26 06:51:00,